Latest Weather Observations for Nullo Mountain

IDN60801

Issued at 8:03 pm EST Saturday 4 July 2015 (issued every 30 minutes, with the page automatically refreshed every 10 minutes)

About weather observations | Map of weather stations | Latest weather observations for NSW | Other Formats
Station Details ID: 062100 Name: NULLO MOUNTAIN AWS Lat: -32.72 Lon: 150.23 Height: 1130.0 m
Data from the previous 72 hours. | See also: Recent months at Nullo Mountain
Date/Time
EST
Temp
°C
App
Temp
°C
Dew
Point
Rel
Hum
%
Delta-T
°C
Wind Press
QNH
hPa
Press
MSL
hPa
Rain
since 9 am
mm
Dir
 
Spd
km/h
Gust
km/h
Spd
kts
Gust
kts
04/08:00pm 2.4 -1.3 -4.1 62 2.3 WSW 6 13 3 7 - - 0.0
04/07:30pm 2.5 -1.8 -4.7 59 2.7 WSW 9 13 5 7 - - 0.0
04/07:00pm 2.9 -1.1 -5.2 55 2.8 W 7 11 4 6 - - 0.0
04/06:30pm 2.8 -1.6 -5.6 54 3.1 W 9 15 5 8 - - 0.0
04/06:00pm 3.0 -1.8 -5.6 53 3.0 W 11 19 6 10 - - 0.0
04/05:30pm 2.9 -1.1 -5.2 55 2.8 WNW 7 15 4 8 - - 0.0
04/05:00pm 3.5 -1.2 -5.2 53 3.1 WNW 11 17 6 9 - - 0.0
04/04:30pm 4.2 -0.1 -4.5 53 3.2 WNW 9 22 5 12 - - 0.0
04/04:00pm 5.1 0.8 -5.3 47 3.7 WNW 9 17 5 9 - - 0.0
04/03:30pm 6.4 1.7 -5.2 43 4.3 WNW 11 19 6 10 - - 0.0
04/03:00pm 7.0 2.2 -6.0 39 4.7 WNW 11 24 6 13 - - 0.0
04/02:30pm 6.8 1.4 -7.9 34 5.1 WNW 13 24 7 13 - - 0.0
04/02:00pm 7.1 2.1 -8.5 32 5.3 WNW 11 20 6 11 - - 0.0
04/01:30pm 6.8 1.3 -9.5 30 5.4 WNW 13 22 7 12 - - 0.0
04/01:00pm 7.1 1.6 -9.7 29 5.6 WNW 13 24 7 13 - - 0.0
04/12:30pm 7.5 1.3 -8.9 30 5.6 W 17 32 9 17 - - 0.0
04/12:00pm 6.7 0.9 -8.8 32 5.2 WNW 15 26 8 14 - - 0.0
04/11:30am 6.4 1.2 -5.9 41 4.4 WNW 13 24 7 13 - - 0.0
04/11:00am 6.4 1.6 -5.9 41 4.4 WNW 11 20 6 11 - - 0.0
04/10:30am 5.9 1.5 -5.7 43 4.2 WNW 9 22 5 12 - - 0.0
04/10:00am 5.1 0.7 -5.8 45 3.9 W 9 19 5 10 - - 0.0
04/09:30am 4.2 -0.4 -4.3 54 3.1 WNW 11 20 6 11 - - 0.0
04/09:00am 4.1 0.2 -1.3 68 2.1 NW 9 17 5 9 - - 0.0
04/08:30am 3.5 - -0.7 74 1.7 - - - - - - - -
04/08:00am 2.6 -1.2 -0.8 78 1.3 NW 9 13 5 7 - - 0.0
04/07:30am 1.8 -2.1 -1.4 79 1.2 WNW 9 15 5 8 - - 0.0
04/07:00am 1.8 -2.5 -1.8 77 1.4 NW 11 19 6 10 - - 0.0
04/06:30am 1.6 -2.7 -2.0 77 1.4 NW 11 19 6 10 - - 0.0
04/06:00am 1.7 -2.6 -1.4 80 1.2 NW 11 20 6 11 - - 0.0
04/05:30am 1.6 -2.3 -1.3 81 1.1 NW 9 15 5 8 - - 0.0
04/05:00am 1.8 -2.5 -1.4 79 1.2 NW 11 17 6 9 - - 0.0
04/04:30am 1.8 -2.0 -0.8 83 1.0 NW 9 13 5 7 - - 0.0
04/04:00am 1.5 -2.3 -0.6 86 0.8 WNW 9 13 5 7 - - 0.0
04/03:30am 1.4 -2.4 -0.5 87 0.7 WNW 9 17 5 9 - - 0.0
04/03:00am 1.6 -1.8 -0.6 85 0.9 WNW 7 17 4 9 - - 0.0
04/02:30am 1.9 -1.9 -0.5 84 0.9 NW 9 17 5 9 - - 0.0
04/02:00am 2.0 -1.3 -0.1 86 0.8 NW 7 13 4 7 - - 0.0
04/01:30am 1.7 -1.6 -0.2 87 0.7 NW 7 13 4 7 - - 0.0
04/01:00am 1.6 -1.3 -1.0 83 1.0 NNW 4 7 2 4 - - 0.0
04/12:30am 1.5 -1.7 -0.7 85 0.9 NW 6 9 3 5 - - 0.0
04/12:00am 0.6 -2.0 -1.9 83 1.0 WNW 2 7 1 4 - - 0.0
 
Date/Time
EST
Temp
°C
App
Temp
°C
Dew
Point
Rel
Hum
%
Delta-T
°C
Wind Press
QNH
hPa
Press
MSL
hPa
Rain
since 9 am
mm
Dir
 
Spd
km/h
Gust
km/h
Spd
kts
Gust
kts
03/11:30pm 1.0 -2.1 -2.4 78 1.3 W 4 6 2 3 - - 0.0
03/11:00pm 0.8 -2.6 -1.9 82 1.1 W 6 7 3 4 - - 0.0
03/10:30pm 0.9 -2.1 -2.2 80 1.2 W 4 6 2 3 - - 0.0
03/10:00pm 1.4 -1.5 -1.3 82 1.0 WNW 4 7 2 4 - - 0.0
03/09:30pm 1.5 -1.3 -0.7 85 0.9 NW 4 7 2 4 - - 0.0
03/09:00pm 0.6 -2.4 -1.8 84 0.9 NW 4 6 2 3 - - 0.0
03/08:30pm 1.4 -1.1 -0.7 86 0.8 W 2 4 1 2 - - 0.0
03/08:00pm 2.0 -0.8 -0.4 84 0.9 W 4 6 2 3 - - 0.0
03/07:30pm 1.8 -0.7 -0.8 83 1.0 NW 2 4 1 2 - - 0.0
03/07:00pm 2.2 -0.6 -0.7 81 1.1 NW 4 6 2 3 - - 0.0
03/06:30pm 2.5 -0.3 -0.6 80 1.2 NNW 4 6 2 3 - - 0.0
03/06:00pm 2.9 0.1 -0.2 80 1.2 NNW 4 6 2 3 - - 0.0
03/05:30pm 2.8 0.0 -0.5 79 1.3 N 4 6 2 3 - - 0.0
03/05:00pm 4.0 1.2 -0.4 73 1.8 NNW 4 6 2 3 - - 0.0
03/04:30pm 5.5 2.4 0.3 69 2.2 NW 6 9 3 5 - - 0.0
03/04:00pm 6.6 3.6 0.5 65 2.6 NNW 6 9 3 5 - - 0.0
03/03:30pm 7.4 4.4 0.6 62 2.9 WNW 6 11 3 6 - - 0.0
03/03:00pm 8.5 5.4 1.4 61 3.1 WNW 7 13 4 7 - - 0.0
03/02:30pm 9.0 6.1 1.4 59 3.4 WNW 6 15 3 8 - - 0.0
03/02:00pm 8.1 4.8 -0.1 56 3.5 WNW 7 13 4 7 - - 0.0
03/01:30pm 8.3 5.3 0.8 59 3.2 W 6 9 3 5 - - 0.0
03/01:00pm 8.1 5.4 0.6 59 3.2 NW 4 9 2 5 - - 0.0
03/12:30pm 7.1 3.9 -0.4 59 3.1 E 6 11 3 6 - - 0.0
03/12:00pm 6.5 3.2 0.0 63 2.7 E 7 11 4 6 - - 0.0
03/11:30am 5.6 2.3 0.0 67 2.3 ESE 7 13 4 7 - - 0.0
03/11:00am 5.2 1.2 0.2 70 2.1 E 11 17 6 9 - - 0.0
03/10:30am 4.7 -0.1 0.3 73 1.8 E 15 20 8 11 - - 0.0
03/10:00am 3.9 -0.9 0.2 77 1.5 ESE 15 20 8 11 - - 0.0
03/09:30am 3.6 -0.5 0.0 77 1.5 E 11 20 6 11 - - 0.0
03/09:00am 2.7 -1.5 -0.9 77 1.4 ESE 11 17 6 9 - - 0.2
03/08:30am 1.7 -3.7 -1.5 79 1.2 ESE 17 22 9 12 - - 0.2
03/08:00am 1.2 -4.3 -2.0 79 1.2 ESE 17 24 9 13 - - 0.2
03/07:30am 0.6 -4.6 -3.0 77 1.3 ESE 15 22 8 12 - - 0.2
03/07:00am 0.3 -5.3 -3.2 77 1.3 ESE 17 28 9 15 - - 0.2
03/06:30am 0.3 -5.4 -3.4 76 1.3 ESE 17 26 9 14 - - 0.2
03/06:00am 0.1 -6.0 -3.6 76 1.3 ESE 19 26 10 14 - - 0.2
03/05:30am -0.1 -5.9 -4.2 74 1.4 ESE 17 24 9 13 - - 0.2
03/05:00am -0.3 -5.0 -5.1 70 1.6 SE 11 17 6 9 - - 0.2
03/04:30am -0.3 -5.8 -5.3 69 1.7 SSE 15 24 8 13 - - 0.2
03/04:00am -0.3 -5.5 -5.7 67 1.8 SSE 13 22 7 12 - - 0.2
03/03:30am 0.1 -5.0 -4.9 69 1.7 SE 13 20 7 11 - - 0.2
03/03:00am 0.0 -4.7 -5.0 69 1.7 SE 11 19 6 10 - - 0.2
03/02:30am 0.1 -4.6 -5.1 68 1.8 SSE 11 24 6 13 - - 0.2
03/02:00am 0.0 -4.2 -3.7 76 1.3 S 9 17 5 9 - - 0.2
03/01:30am -0.5 -4.7 -3.5 80 1.0 S 9 13 5 7 - - 0.2
03/01:00am -0.5 -4.3 -3.5 80 1.0 S 7 11 4 6 - - 0.2
03/12:30am -0.2 -4.3 -3.1 81 1.0 SSE 9 11 5 6 - - 0.2
03/12:00am -0.2 -3.9 -2.9 82 1.0 S 7 11 4 6 - - 0.2
 
Date/Time
EST
Temp
°C
App
Temp
°C
Dew
Point
Rel
Hum
%
Delta-T
°C
Wind Press
QNH
hPa
Press
MSL
hPa
Rain
since 9 am
mm
Dir
 
Spd
km/h
Gust
km/h
Spd
kts
Gust
kts
02/11:30pm 0.2 -2.9 -2.7 81 1.1 SSE 4 7 2 4 - - 0.2
02/11:00pm 0.7 -2.7 -2.0 82 1.0 SSE 6 13 3 7 - - 0.2
02/10:30pm 1.3 -3.0 -1.4 82 1.0 SW 11 19 6 10 - - 0.2
02/10:00pm 1.6 -2.7 -1.6 79 1.2 SSW 11 20 6 11 - - 0.2
02/09:30pm 2.1 -2.6 -1.5 77 1.4 SSW 13 24 7 13 - - 0.2
02/09:00pm 2.7 -2.3 -0.9 77 1.4 SW 15 24 8 13 - - 0.2
02/08:30pm 2.8 -2.2 -1.2 75 1.6 SW 15 32 8 17 - - 0.2
02/08:00pm 2.6 -2.1 -1.6 74 1.6 WSW 13 32 7 17 - - 0.2
02/07:30pm 3.4 -1.2 -0.8 74 1.7 WSW 13 32 7 17 - - 0.2
02/07:00pm 3.8 -1.6 1.0 82 1.2 SW 19 30 10 16 - - 0.2
02/06:30pm 4.0 -1.4 1.5 84 1.1 WSW 19 35 10 19 - - 0.2
02/06:00pm 4.1 -1.2 1.8 85 1.0 WSW 19 35 10 19 - - 0.2
02/05:30pm 4.2 -1.1 1.7 84 1.1 W 19 37 10 20 - - 0.2
02/05:00pm 4.4 -0.6 1.4 81 1.3 W 17 32 9 17 - - 0.2
02/04:30pm 4.7 -0.3 1.2 78 1.5 W 17 30 9 16 - - 0.2
02/04:00pm 5.0 -0.7 0.8 74 1.8 W 20 39 11 21 - - 0.2
02/03:30pm 5.3 -1.1 0.9 73 1.9 WSW 24 41 13 22 - - 0.2
02/03:00pm 5.5 -0.6 0.7 71 2.0 WSW 22 44 12 24 - - 0.2
02/02:30pm 6.3 0.9 1.0 69 2.3 SW 19 32 10 17 - - 0.2
02/02:00pm 6.7 1.1 1.4 69 2.3 WSW 20 33 11 18 - - 0.2
02/01:30pm 5.7 0.6 0.7 70 2.1 WSW 17 43 9 23 - - 0.2
02/01:00pm 5.7 -0.3 0.9 71 2.0 WSW 22 39 12 21 - - 0.2
02/12:30pm 4.8 -0.9 0.6 74 1.7 WSW 20 39 11 21 - - 0.2
02/12:00pm 4.5 -0.6 0.8 77 1.5 WSW 17 35 9 19 - - 0.2
02/11:30am 3.7 -0.6 1.1 83 1.1 W 13 26 7 14 - - 0.2
02/11:00am 2.2 -2.2 0.4 88 0.7 WNW 13 24 7 13 - - 0.2
02/10:30am 1.3 -2.4 -0.2 90 0.6 W 9 20 5 11 - - 0.2
02/10:00am 0.8 -2.9 -0.3 92 0.4 WNW 9 17 5 9 - - 0.2
02/09:30am 0.3 -3.5 -0.8 92 0.4 W 9 20 5 11 - - 0.2
02/09:00am 0.1 -3.8 -1.2 91 0.5 W 9 15 5 8 - - 0.0
02/08:30am 0.1 -3.4 -1.3 90 0.5 WSW 7 13 4 7 - - 0.0
02/08:00am -0.6 -3.6 -1.7 92 0.4 WNW 4 7 2 4 - - 0.0
02/07:30am -1.0 -4.0 -2.0 93 0.3 W 4 9 2 5 - - 0.0
02/07:00am -0.9 -4.6 -2.5 89 0.5 W 7 13 4 7 - - 0.0
02/06:30am -0.4 -3.9 -3.1 82 1.0 WSW 6 13 3 7 - - 0.0
02/06:00am -0.1 -3.8 -3.3 79 1.1 WSW 7 13 4 7 - - 0.0
02/05:30am 0.3 -3.5 -3.6 75 1.4 WSW 7 20 4 11 - - 0.0
02/05:00am -0.3 -4.0 -3.0 82 1.0 W 7 13 4 7 - - 0.0
02/04:30am -1.1 -4.8 -2.7 89 0.5 W 7 13 4 7 - - 0.0
02/04:00am -1.0 -5.5 -2.9 87 0.6 W 11 20 6 11 - - 0.0
02/03:30am 0.1 -4.4 -3.6 76 1.3 W 11 19 6 10 - - 0.0
02/03:00am 0.4 -3.4 -4.0 72 1.6 W 7 15 4 8 - - 0.0
02/02:30am 0.4 -3.2 -4.0 72 1.6 WNW 6 11 3 6 - - 0.0
02/02:00am 0.6 -2.9 -2.6 79 1.2 W 6 9 3 5 - - 0.0
02/01:30am 0.0 -2.9 -1.1 92 0.4 WNW 4 13 2 7 - - 0.0
02/01:00am 0.5 -3.3 -0.4 94 0.3 W 9 19 5 10 - - 0.0
02/12:30am 0.0 -3.2 -0.8 94 0.3 WSW 6 9 3 5 - - 0.0
02/12:00am 0.4 -2.8 -0.6 93 0.4 WNW 6 9 3 5 - - 0.0
 
Date/Time
EST
Temp
°C
App
Temp
°C
Dew
Point
Rel
Hum
%
Delta-T
°C
Wind Press
QNH
hPa
Press
MSL
hPa
Rain
since 9 am
mm
Dir
 
Spd
km/h
Gust
km/h
Spd
kts
Gust
kts
01/11:30pm 1.1 -2.0 -0.1 92 0.5 WSW 6 7 3 4 - - 0.0
01/11:00pm 1.0 -1.8 -0.3 91 0.5 W 4 7 2 4 - - 0.0
01/10:30pm 1.2 -2.1 0.0 92 0.5 W 7 11 4 6 - - 0.0
01/10:00pm 1.1 -1.7 -0.1 92 0.5 W 4 6 2 3 - - 0.0
01/09:30pm 1.6 -1.1 0.0 89 0.6 WSW 4 7 2 4 - - 0.0
01/09:00pm 2.3 -0.9 0.5 88 0.7 WSW 7 9 4 5 - - 0.0
01/08:30pm 2.3 -1.0 0.2 86 0.8 WSW 7 13 4 7 - - 0.0

Other Formats:

Comma delimited format used in spreadsheet applications
http://www.bom.gov.au/fwo/IDN60801/IDN60801.94754.axf

JavaScript Object Notation format (JSON) in row-major order
http://www.bom.gov.au/fwo/IDN60801/IDN60801.94754.json